Astana, Kazakhstan
Current Conditions -  °F | °C
As of 2:00 PM on Friday 31 Oct 2014 (Local Time) from UACC Reporting Station
Overcast Overcast  
Wind Chill: 28°   Ceiling: 2900
Heat Index: 37°   Visibility: 6mi
Dew Point: 30°   Wind: 16mph
Humidity: 75%   Direction: 220°SW
Pressure: 30.39"   Gusts: NA
Location:  51.17°N, 71.5°E
Report Text: UACC 310800Z 22007MPS 9999 OVC029 03/M01 Q1029 R22/1/0065 NOSIGRMK QFE740/0986
Loading
Personal Weather Stations






























Interactive Weather Map
Tropical Storm Tracking
New forecast layout! Learn more

10-Day Weather Forecast

Advertisements
Track Severe Weather on mobile